September 24, 2022

Time Code Weather Temp. Visibility Ceiling Wind METAR/SPECI
8:55 am
V
59 °F 9 mi - 330° 330° 4 kt METAR KORS 241555Z AUTO 33004KT 9SM CLR 15/13 A3025 RMK AO2
8:35 am
V
59 °F 9 mi - Var 000° 0 kt METAR KORS 241535Z AUTO 00000KT 9SM CLR 15/14 A3025 RMK AO2
8:15 am
V
57 °F 10 mi - Var 000° 0 kt METAR KORS 241515Z AUTO 00000KT 10SM FEW055 14/13 A3024 RMK AO2
7:55 am
V
54 °F 10 mi 5,500 ft Var 000° 0 kt METAR KORS 241455Z AUTO 00000KT 10SM BKN055 12/12 A3023 RMK AO2
7:35 am
V
54 °F 10 mi 5,000 ft Var 000° 0 kt METAR KORS 241435Z AUTO 00000KT 10SM BKN050 12/12 A3023 RMK AO2
7:15 am
V
54 °F 10 mi 5,000 ft Var 000° 0 kt METAR KORS 241415Z AUTO 00000KT 10SM OVC050 12/12 A3023 RMK AO2
6:55 am
V
54 °F 10 mi 5,000 ft Var 000° 0 kt METAR KORS 241355Z AUTO 00000KT 10SM OVC050 12/12 A3022 RMK AO2
6:35 am
V
54 °F 10 mi 5,000 ft Var 000° 0 kt METAR KORS 241335Z AUTO 00000KT 10SM FEW046 BKN050 12/12 A3022 RMK AO2
6:15 am
V
55 °F 10 mi 5,000 ft Var 000° 0 kt METAR KORS 241315Z AUTO 00000KT 10SM SCT046 OVC050 13/12 A3021 RMK AO2
5:55 am
V
55 °F 10 mi 4,600 ft Var 000° 0 kt METAR KORS 241255Z AUTO 00000KT 10SM OVC046 13/12 A3020 RMK AO2
5:35 am
V
55 °F 10 mi 4,600 ft Var 000° 0 kt METAR KORS 241235Z AUTO 00000KT 10SM OVC046 13/12 A3020 RMK AO2
5:15 am
V
54 °F 10 mi 4,600 ft Var 000° 0 kt METAR KORS 241215Z AUTO 00000KT 10SM OVC046 12/12 A3020 RMK AO2
4:55 am
V
54 °F 10 mi 4,600 ft Var 000° 0 kt METAR KORS 241155Z AUTO 00000KT 10SM OVC046 12/12 A3020 RMK AO2
4:35 am
V
54 °F 10 mi 4,600 ft Var 000° 0 kt METAR KORS 241135Z AUTO 00000KT 10SM OVC046 12/11 A3019 RMK AO2
4:15 am
V
54 °F 10 mi 4,700 ft Var 000° 0 kt METAR KORS 241115Z AUTO 00000KT 10SM OVC047 12/11 A3020 RMK AO2
3:55 am
V
54 °F 10 mi 4,700 ft 180° 180° 3 kt METAR KORS 241055Z AUTO 18003KT 10SM BKN047 OVC055 12/11 A3020 RMK AO2
3:35 am
V
52 °F 10 mi 5,000 ft 180° 180° 3 kt METAR KORS 241035Z AUTO 18003KT 10SM SCT045 OVC050 11/11 A3019 RMK AO2
3:15 am
V
54 °F 10 mi 5,000 ft Var 000° 0 kt METAR KORS 241015Z AUTO 00000KT 10SM SCT044 BKN050 12/11 A3019 RMK AO2
2:55 am
V
52 °F 10 mi - 190° 190° 4 kt METAR KORS 240955Z AUTO 19004KT 10SM FEW043 11/11 A3019 RMK AO2
2:35 am
V
54 °F 10 mi - Var 000° 0 kt METAR KORS 240935Z AUTO 00000KT 10SM CLR 12/11 A3019 RMK AO2
2:15 am
V
54 °F 10 mi - Var 000° 0 kt METAR KORS 240915Z AUTO 00000KT 10SM CLR 12/11 A3019 RMK AO2
1:55 am
V
54 °F 10 mi - Var 000° 0 kt METAR KORS 240855Z AUTO 00000KT 10SM SCT060 12/11 A3018 RMK AO2
1:35 am
V
55 °F 10 mi - Var 000° 0 kt METAR KORS 240835Z AUTO 00000KT 10SM SCT055 13/11 A3018 RMK AO2
1:15 am
V
55 °F 10 mi 5,500 ft Var 000° 0 kt METAR KORS 240815Z AUTO 00000KT 10SM BKN055 13/11 A3018 RMK AO2
12:55 am
V
55 °F 10 mi 5,500 ft Var 000° 0 kt METAR KORS 240755Z AUTO 00000KT 10SM BKN055 BKN065 13/11 A3018 RMK AO2
12:35 am
V
55 °F 10 mi 5,000 ft Var 000° 0 kt METAR KORS 240735Z AUTO 00000KT 10SM FEW044 BKN050 OVC065 13/12 A3017 RMK AO2
12:15 am
V
57 °F 10 mi 4,800 ft Var 000° 0 kt METAR KORS 240715Z AUTO 10SM OVC048 14/12 A3017 RMK AO2

September 23, 2022

Time Code Weather Temp. Visibility Ceiling Wind METAR/SPECI
11:55 pm
V
57 °F 10 mi 5,000 ft Var 000° 0 kt METAR KORS 240655Z AUTO 00000KT 10SM OVC050 14/12 A3017 RMK AO2
11:35 pm
V
55 °F 10 mi 5,000 ft Var 000° 0 kt METAR KORS 240635Z AUTO 00000KT 10SM BKN050 OVC055 13/12 A3017 RMK AO2
11:15 pm
V
55 °F 10 mi 5,500 ft Var 000° 0 kt METAR KORS 240615Z AUTO 00000KT 10SM BKN055 BKN065 13/11 A3017 RMK AO2
10:55 pm
V
55 °F 10 mi - Var 000° 0 kt METAR KORS 240555Z AUTO 00000KT 10SM FEW060 13/11 A3017 RMK AO2
10:35 pm
V
55 °F 10 mi - Var 000° 0 kt METAR KORS 240535Z AUTO 00000KT 10SM CLR 13/11 A3016 RMK AO2
10:15 pm
V
57 °F 10 mi - Var 000° 0 kt METAR KORS 240515Z AUTO 00000KT 10SM FEW035 SCT060 SCT120 14/11 A3016 RMK AO2
9:55 pm
V
57 °F 10 mi 3,600 ft Var 000° 0 kt METAR KORS 240455Z AUTO 00000KT 10SM BKN036 OVC060 14/12 A3016 RMK AO2
9:35 pm
V
57 °F 10 mi 3,700 ft Var 000° 0 kt METAR KORS 240435Z AUTO 00000KT 10SM BKN037 OVC060 14/12 A3016 RMK AO2
9:15 pm
V
57 °F 10 mi 6,000 ft Var 000° 0 kt METAR KORS 240415Z AUTO 00000KT 10SM BKN060 BKN120 14/12 A3015 RMK AO2
8:55 pm
V
57 °F 10 mi - Var 000° 0 kt METAR KORS 240355Z AUTO 00000KT 10SM FEW120 14/12 A3015 RMK AO2
8:35 pm
V
59 °F 10 mi - Var 000° 0 kt METAR KORS 240335Z AUTO 00000KT 10SM FEW100 FEW120 15/12 A3015 RMK AO2
8:15 pm
V
59 °F 10 mi - Var 000° 0 kt METAR KORS 240315Z AUTO 00000KT 10SM FEW095 FEW120 15/12 A3014 RMK AO2
7:55 pm
V
61 °F 10 mi - Var 000° 0 kt METAR KORS 240255Z AUTO 00000KT 10SM CLR 16/12 A3014 RMK AO2
7:35 pm
V
59 °F 10 mi - Var 000° 0 kt METAR KORS 240235Z AUTO 00000KT 10SM CLR 15/12 A3014 RMK AO2
7:15 pm
V
59 °F 10 mi - Var 000° 0 kt METAR KORS 240215Z AUTO 00000KT 10SM CLR 15/12 A3014 RMK AO2
6:55 pm
V
61 °F 10 mi - Var 000° 0 kt METAR KORS 240155Z AUTO 00000KT 10SM SCT045 SCT070 16/12 A3014 RMK AO2
6:35 pm
V
64 °F 10 mi 4,600 ft Var 000° 0 kt METAR KORS 240135Z AUTO 00000KT 10SM BKN046 BKN080 18/11 A3014 RMK AO2
6:15 pm
V
64 °F 10 mi 4,600 ft Var 000° 0 kt METAR KORS 240115Z AUTO 00000KT 10SM BKN046 BKN070 BKN080 18/11 A3014 RMK AO2
5:55 pm
V
66 °F 10 mi 5,000 ft Var 000° 0 kt METAR KORS 240055Z AUTO 00000KT 10SM FEW041 BKN050 OVC065 19/11 A3014 RMK AO2
5:35 pm
V
64 °F 10 mi 5,000 ft Var 000° 0 kt METAR KORS 240035Z AUTO 00000KT 10SM FEW027 SCT044 OVC050 18/11 A3013 RMK AO2
5:15 pm
V
64 °F 10 mi 4,500 ft Var 000° 0 kt METAR KORS 240015Z AUTO 00000KT 10SM FEW034 BKN045 OVC050 18/11 A3014 RMK AO2
4:55 pm
V
64 °F 10 mi 4,500 ft Var 000° 0 kt METAR KORS 232355Z AUTO 00000KT 10SM FEW036 OVC045 18/11 A3014 RMK AO2
4:35 pm
V
64 °F 10 mi 4,000 ft Var 000° 0 kt METAR KORS 232335Z AUTO 00000KT 10SM OVC040 18/12 A3014 RMK AO2
4:15 pm
V
64 °F 10 mi 4,300 ft Var 000° 0 kt METAR KORS 232315Z AUTO 00000KT 10SM FEW034 BKN043 OVC060 18/12 A3014 RMK AO2
3:55 pm
V
64 °F 10 mi 6,000 ft Var Var 4 kt METAR KORS 232255Z AUTO VRB04KT 10SM SCT044 OVC060 18/12 A3014 RMK AO2
3:35 pm
V
64 °F 10 mi 6,000 ft 020° 020° 3 kt METAR KORS 232235Z AUTO 02003KT 10SM SCT045 OVC060 18/12 A3014 RMK AO2
3:15 pm
V
64 °F 10 mi 5,500 ft Var 000° 0 kt METAR KORS 232215Z AUTO 00000KT 10SM FEW046 OVC055 18/12 A3014 RMK AO2
2:55 pm
V
63 °F 10 mi 4,700 ft Var 000° 0 kt METAR KORS 232155Z AUTO 00000KT 10SM BKN047 OVC055 17/12 A3015 RMK AO2
2:35 pm
V
64 °F 10 mi 5,000 ft Var 000° 0 kt METAR KORS 232135Z AUTO 00000KT 10SM OVC050 18/12 A3015 RMK AO2
2:15 pm
V
64 °F 10 mi 5,500 ft Var 000° 0 kt METAR KORS 232115Z AUTO 00000KT 10SM SCT045 BKN055 18/12 A3015 RMK AO2
1:55 pm
V
64 °F 7 mi 4,600 ft 240° 240° 3 kt METAR KORS 232055Z AUTO 24003KT 7SM -RA FEW032 BKN046 BKN055 18/12 A3015 RMK AO2
1:35 pm
V
63 °F 10 mi 4,500 ft 180° 180° 5 kt METAR KORS 232035Z AUTO 18005KT 10SM OVC045 17/12 A3015 RMK AO2
1:15 pm
V
63 °F 10 mi 4,400 ft 180° 180° 7 kt METAR KORS 232015Z AUTO 18007KT 10SM BKN044 OVC050 17/12 A3016 RMK AO2
12:55 pm
V
63 °F 10 mi 5,000 ft 180° 180° 6 kt METAR KORS 231955Z AUTO 18006KT 10SM OVC050 17/12 A3015 RMK AO2
12:35 pm
V
63 °F 10 mi 5,000 ft 180° 180° 5 kt METAR KORS 231935Z AUTO 18005KT 10SM OVC050 17/12 A3015 RMK AO2
12:15 pm
V
61 °F 10 mi 4,900 ft Var Var 4 kt METAR KORS 231915Z AUTO VRB04KT 10SM OVC049 16/12 A3016 RMK AO2
11:55 am
V
61 °F 10 mi 4,600 ft 160° 160° 6 kt METAR KORS 231855Z AUTO 16006KT 10SM OVC046 16/12 A3016 RMK AO2
11:35 am
V
61 °F 10 mi 4,800 ft 180° 180° 5 kt METAR KORS 231835Z AUTO 18005KT 10SM OVC048 16/12 A3016 RMK AO2
11:15 am
V
61 °F 10 mi 5,000 ft Var Var 5 kt METAR KORS 231815Z AUTO VRB05KT 10SM OVC050 16/12 A3016 RMK AO2
10:55 am
V
61 °F 10 mi 5,000 ft 170° 170° 6 kt METAR KORS 231755Z AUTO 17006KT 10SM OVC050 16/12 A3015 RMK AO2
10:35 am
V
61 °F 10 mi 5,000 ft 160° 160° 7 kt METAR KORS 231735Z AUTO 16007KT 10SM OVC050 16/12 A3015 RMK AO2
10:15 am
V
61 °F 10 mi 4,900 ft Var Var 6 kt METAR KORS 231715Z AUTO VRB06KT 10SM OVC049 16/12 A3015 RMK AO2
9:55 am
V
61 °F 10 mi 5,000 ft 180° 180° 7 kt METAR KORS 231655Z AUTO 18007KT 10SM OVC050 16/12 A3015 RMK AO2
9:35 am
V
59 °F 10 mi 5,000 ft 170° 170° 6 kt METAR KORS 231635Z AUTO 17006KT 10SM OVC050 15/12 A3014 RMK AO2
9:15 am
V
59 °F 10 mi 5,000 ft 180° 180° 6 kt METAR KORS 231615Z AUTO 18006KT 10SM OVC050 15/12 A3014 RMK AO2
8:55 am
V
59 °F 10 mi 5,000 ft 180° 180° 7 kt METAR KORS 231555Z AUTO 18007KT 10SM OVC050 15/12 A3013 RMK AO2
8:35 am
V
59 °F 10 mi 4,700 ft 170° 170° 6 kt METAR KORS 231535Z AUTO 17006KT 10SM OVC047 15/12 A3013 RMK AO2
8:15 am
V
59 °F 10 mi 4,700 ft 170° 170° 6 kt METAR KORS 231515Z AUTO 17006KT 10SM BKN047 OVC055 15/12 A3013 RMK AO2
7:55 am
V
57 °F 10 mi 5,500 ft 170° 170° 7 kt METAR KORS 231455Z AUTO 17007KT 10SM FEW049 BKN055 OVC070 14/12 A3012 RMK AO2
7:35 am
V
57 °F 10 mi 7,500 ft 170° 170° 7 kt METAR KORS 231435Z AUTO 17007KT 10SM FEW049 SCT060 OVC075 14/12 A3012 RMK AO2
7:15 am
V
57 °F 9 mi 4,800 ft 180° 180° 8 kt METAR KORS 231415Z AUTO 18008KT 9SM -RA BKN048 OVC070 14/12 A3012 RMK AO2
6:55 am
V
57 °F 10 mi 4,700 ft 180° 180° 8 kt METAR KORS 231355Z AUTO 18008KT 10SM OVC047 14/11 A3011 RMK AO2
6:35 am
V
59 °F 10 mi 4,900 ft 170° 170° 9 kt METAR KORS 231335Z AUTO 17009KT 10SM OVC049 15/11 A3011 RMK AO2
6:15 am
V
59 °F 10 mi 5,000 ft 180° 180° 10 kt METAR KORS 231315Z AUTO 18010KT 10SM BKN050 BKN055 OVC070 15/11 A3011 RMK AO2
5:55 am
V
59 °F 10 mi 5,000 ft 180° 180° 9 kt METAR KORS 231255Z AUTO 18009KT 10SM BKN050 OVC060 15/11 A3010 RMK AO2
5:35 am
V
59 °F 10 mi 5,500 ft 180° 180° 10 kt METAR KORS 231235Z AUTO 18010KT 10SM BKN055 OVC060 15/11 A3010 RMK AO2
5:15 am
V
57 °F 10 mi 6,000 ft 190° 190° 11 kt METAR KORS 231215Z AUTO 19011KT 10SM FEW050 OVC060 14/11 A3010 RMK AO2
4:55 am
V
57 °F 10 mi 5,000 ft 180° 180° 10 kt METAR KORS 231155Z AUTO 18010KT 10SM BKN050 OVC060 14/11 A3009 RMK AO2
4:35 am
V
57 °F 10 mi 5,000 ft 180° 180° 10 kt METAR KORS 231135Z AUTO 18010KT 10SM BKN050 OVC060 14/11 A3009 RMK AO2
4:15 am
V
57 °F 10 mi 5,000 ft 180° 180° 10 kt METAR KORS 231115Z AUTO 18010KT 10SM BKN050 OVC060 14/11 A3009 RMK AO2
3:55 am
V
59 °F 10 mi 5,000 ft 180° 180° 9 kt METAR KORS 231055Z AUTO 18009KT 10SM OVC050 15/11 A3009 RMK AO2
3:35 am
V
59 °F 10 mi 4,800 ft 180° 180° 7 kt METAR KORS 231035Z AUTO 18007KT 10SM OVC048 15/11 A3009 RMK AO2
3:15 am
V
57 °F 10 mi 4,500 ft 150° 150° 6 kt METAR KORS 231015Z AUTO 15006KT 10SM OVC045 14/11 A3009 RMK AO2
2:55 am
V
57 °F 10 mi 4,300 ft 170° 170° 7 kt METAR KORS 230955Z AUTO 17007KT 10SM OVC043 14/11 A3009 RMK AO2
2:35 am
V
57 °F 10 mi 4,300 ft 180° 180° 8 kt METAR KORS 230935Z AUTO 18008KT 10SM OVC043 14/11 A3009 RMK AO2
2:15 am
V
57 °F 10 mi 4,200 ft 180° 180° 7 - 13 kt METAR KORS 230915Z AUTO 18007G13KT 10SM OVC042 14/11 A3008 RMK AO2
1:55 am
V
59 °F 10 mi 4,200 ft 170° 170° 8 kt METAR KORS 230855Z AUTO 17008KT 10SM OVC042 15/11 A3008 RMK AO2
1:35 am
V
59 °F 10 mi 4,200 ft 150° 150° 6 kt METAR KORS 230835Z AUTO 15006KT 10SM OVC042 15/11 A3008 RMK AO2
1:15 am
V
59 °F 10 mi 4,200 ft 160° 160° 6 kt METAR KORS 230815Z AUTO 16006KT 10SM OVC042 15/10 A3008 RMK AO2
12:55 am
V
59 °F 10 mi 4,200 ft 170° 170° 7 kt METAR KORS 230755Z AUTO 17007KT 10SM OVC042 15/10 A3008 RMK AO2
12:35 am
V
59 °F 10 mi 4,600 ft 160° 160° 5 kt METAR KORS 230735Z AUTO 16005KT 10SM BKN046 OVC055 15/10 A3008 RMK AO2
12:15 am
V
59 °F 10 mi 4,400 ft 160° 160° 3 kt METAR KORS 230715Z AUTO 16003KT 10SM BKN044 OVC050 15/10 A3008 RMK AO2

September 22, 2022

Time Code Weather Temp. Visibility Ceiling Wind METAR/SPECI
11:55 pm
V
59 °F 10 mi 4,600 ft 170° 170° 3 kt METAR KORS 230655Z AUTO 17003KT 10SM OVC046 15/10 A3008 RMK AO2
11:35 pm
V
57 °F 10 mi 4,700 ft 180° 180° 3 kt METAR KORS 230635Z AUTO 18003KT 10SM OVC047 14/10 A3008 RMK AO2
11:15 pm
V
57 °F 10 mi 4,800 ft 200° 200° 3 kt METAR KORS 230615Z AUTO 20003KT 10SM BKN048 OVC055 14/10 A3007 RMK AO2
10:55 pm
V
57 °F 10 mi - Var 000° 0 kt METAR KORS 230555Z AUTO 00000KT 10SM SCT050 14/10 A3007 RMK AO2
10:35 pm
V
57 °F 10 mi - Var 000° 0 kt METAR KORS 230535Z AUTO 00000KT 10SM FEW049 14/10 A3007 RMK AO2
10:15 pm
V
55 °F 10 mi - Var 000° 0 kt METAR KORS 230515Z AUTO 00000KT 10SM CLR 13/10 A3007 RMK AO2
9:55 pm
V
57 °F 10 mi - Var 000° 0 kt METAR KORS 230455Z AUTO 00000KT 10SM CLR 14/11 A3006 RMK AO2
9:35 pm
V
57 °F 10 mi - 200° 200° 3 kt METAR KORS 230435Z AUTO 20003KT 10SM CLR 14/11 A3006 RMK AO2
9:15 pm
V
57 °F 10 mi - 160° 160° 3 kt METAR KORS 230415Z AUTO 16003KT 10SM CLR 14/11 A3006 RMK AO2
8:55 pm
V
59 °F 10 mi - Var 000° 0 kt METAR KORS 230355Z AUTO 00000KT 10SM CLR 15/11 A3006 RMK AO2
8:35 pm
V
59 °F 10 mi - 170° 170° 3 kt METAR KORS 230335Z AUTO 17003KT 10SM SCT050 15/11 A3006 RMK AO2
8:15 pm
V
61 °F 10 mi - 170° 170° 4 kt METAR KORS 230315Z AUTO 17004KT 10SM SCT050 16/11 A3005 RMK AO2
7:55 pm
V
61 °F 10 mi - 180° 180° 6 kt METAR KORS 230255Z AUTO 18006KT 10SM SCT050 16/11 A3004 RMK AO2
7:35 pm
V
61 °F 10 mi - 170° 170° 6 kt METAR KORS 230235Z AUTO 17006KT 10SM SCT050 16/11 A3004 RMK AO2
7:15 pm
V
63 °F 10 mi - 160° 160° 5 - 11 kt METAR KORS 230215Z AUTO 16005G11KT 10SM CLR 17/11 A3004 RMK AO2
6:55 pm
V
64 °F 10 mi - 170° 170° 7 kt METAR KORS 230155Z AUTO 17007KT 10SM CLR 18/11 A3003 RMK AO2
6:35 pm
V
64 °F 10 mi - 170° 170° 10 kt METAR KORS 230135Z AUTO 17010KT 10SM CLR 18/11 A3003 RMK AO2
6:15 pm
V
66 °F 10 mi - 170° 170° 9 kt METAR KORS 230115Z AUTO 17009KT 140V200 10SM CLR 19/11 A3003 RMK AO2
5:55 pm
V
66 °F 10 mi - 180° 180° 8 kt METAR KORS 230055Z AUTO 18008KT 10SM CLR 19/11 A3002 RMK AO2
5:35 pm
V
66 °F 10 mi - 170° 170° 8 - 14 kt METAR KORS 230035Z AUTO 17008G14KT 10SM CLR 19/11 A3002 RMK AO2
5:15 pm
V
68 °F 10 mi - 160° 160° 11 kt METAR KORS 230015Z AUTO 16011KT 10SM CLR 20/11 A3002 RMK AO2
4:55 pm
V
68 °F 10 mi - 160° 160° 10 - 15 kt METAR KORS 222355Z AUTO 16010G15KT 10SM CLR 20/11 A3002 RMK AO2
4:35 pm
V
68 °F 10 mi - 160° 160° 10 - 18 kt METAR KORS 222335Z AUTO 16010G18KT 10SM CLR 20/11 A3002 RMK AO2
4:15 pm
V
68 °F 10 mi - 170° 170° 10 - 17 kt METAR KORS 222315Z AUTO 17010G17KT 10SM CLR 20/11 A3002 RMK AO2
3:55 pm
V
68 °F 10 mi - 170° 170° 12 kt METAR KORS 222255Z AUTO 17012KT 10SM CLR 20/11 A3002 RMK AO2
3:35 pm
V
68 °F 10 mi - 170° 170° 11 - 16 kt METAR KORS 222235Z AUTO 17011G16KT 10SM CLR 20/11 A3002 RMK AO2
3:15 pm
V
68 °F 10 mi - 160° 160° 11 - 18 kt METAR KORS 222215Z AUTO 16011G18KT 10SM CLR 20/11 A3002 RMK AO2
2:55 pm
V
66 °F 10 mi - 160° 160° 11 - 21 kt METAR KORS 222155Z AUTO 16011G21KT 10SM CLR 19/11 A3003 RMK AO2
2:35 pm
V
66 °F 10 mi - 170° 170° 13 - 19 kt METAR KORS 222135Z AUTO 17013G19KT 10SM CLR 19/11 A3003 RMK AO2
2:15 pm
V
66 °F 10 mi - 170° 170° 12 - 18 kt METAR KORS 222115Z AUTO 17012G18KT 10SM CLR 19/11 A3003 RMK AO2
1:55 pm
V
66 °F 10 mi - 160° 160° 11 kt METAR KORS 222055Z AUTO 16011KT 10SM CLR 19/11 A3003 RMK AO2
1:35 pm
V
66 °F 10 mi - 170° 170° 10 kt METAR KORS 222035Z AUTO 17010KT 10SM CLR 19/11 A3003 RMK AO2
1:15 pm
V
64 °F 10 mi - 170° 170° 11 - 19 kt METAR KORS 222015Z AUTO 17011G19KT 10SM CLR 18/11 A3003 RMK AO2
12:55 pm
V
64 °F 10 mi - 170° 170° 12 - 20 kt METAR KORS 221955Z AUTO 17012G20KT 10SM CLR 18/11 A3003 RMK AO2
12:35 pm
V
64 °F 10 mi - 170° 170° 12 - 18 kt METAR KORS 221935Z AUTO 17012G18KT 10SM 18/11 A3003 RMK AO2
12:15 pm
L
32 °F 0 mi - Var 000° 0 kt METAR KORS 221915Z AUTO RMK AO2 PNO PWINO
11:55 am
L
32 °F 0 mi - 160° 160° 12 - 19 kt METAR KORS 221855Z AUTO 16012G19KT A3004 RMK AO2
11:35 am
V
63 °F 10 mi - 160° 160° 13 - 23 kt METAR KORS 221835Z AUTO 16013G23KT 10SM CLR 17/12 A3003 RMK AO2
11:15 am
V
63 °F 10 mi - 160° 160° 13 - 20 kt METAR KORS 221815Z AUTO 16013G20KT 10SM CLR 17/12 A3003 RMK AO2
10:55 am
V
61 °F 10 mi - 180° 180° 14 kt METAR KORS 221755Z AUTO 18014KT 10SM CLR 16/12 A3003 RMK AO2
10:35 am
V
61 °F 10 mi - 190° 190° 15 kt METAR KORS 221735Z AUTO 19015KT 10SM FEW022 16/12 A3002 RMK AO2
10:15 am
V
61 °F 10 mi - 190° 190° 18 kt METAR KORS 221715Z AUTO 19018KT 10SM CLR 16/11 A3002 RMK AO2
9:55 am
V
61 °F 10 mi - 180° 180° 11 - 19 kt METAR KORS 221655Z AUTO 18011G19KT 10SM CLR 16/12 A3002 RMK AO2
9:35 am
V
61 °F 10 mi - 180° 180° 11 - 18 kt METAR KORS 221635Z AUTO 18011G18KT 10SM CLR 16/12 A3001 RMK AO2
9:15 am
V
59 °F 10 mi - 170° 170° 12 - 17 kt METAR KORS 221615Z AUTO 17012G17KT 10SM CLR 15/11 A3000 RMK AO2
8:55 am
V
59 °F 10 mi - 180° 180° 13 kt METAR KORS 221555Z AUTO 18013KT 10SM CLR 15/11 A3000 RMK AO2
8:35 am
V
59 °F 10 mi - 180° 180° 11 - 17 kt METAR KORS 221535Z AUTO 18011G17KT 10SM CLR 15/11 A2999 RMK AO2
8:15 am
V
57 °F 10 mi - 170° 170° 11 - 20 kt METAR KORS 221515Z AUTO 17011G20KT 10SM CLR 14/11 A2998 RMK AO2
7:55 am
V
57 °F 10 mi - 170° 170° 13 - 21 kt METAR KORS 221455Z AUTO 17013G21KT 10SM CLR 14/11 A2998 RMK AO2
Older data

We and third parties follow your internet behavior on our website with cookies. If you continue, we assume you agree with our cookie policy. Learn more